sensor_id;sensor_type;location;lat;lon;timestamp;pressure;altitude;pressure_sealevel;temperature;humidity
73941;BME280;62294;48.554;10.202;2023-03-01T00:01:17;96786.84;;;-2.36;100.00
73941;BME280;62294;48.554;10.202;2023-03-01T00:03:44;96783.75;;;-2.41;100.00
73941;BME280;62294;48.554;10.202;2023-03-01T00:06:11;96785.91;;;-2.35;100.00
73941;BME280;62294;48.554;10.202;2023-03-01T00:08:38;96782.78;;;-2.29;100.00
73941;BME280;62294;48.554;10.202;2023-03-01T00:11:24;96778.25;;;-2.16;100.00
73941;BME280;62294;48.554;10.202;2023-03-01T00:13:53;96782.28;;;-2.23;100.00
73941;BME280;62294;48.554;10.202;2023-03-01T00:16:33;96771.53;;;-2.30;100.00
73941;BME280;62294;48.554;10.202;2023-03-01T00:19:00;96776.50;;;-2.27;100.00
73941;BME280;62294;48.554;10.202;2023-03-01T00:21:28;96778.16;;;-2.26;100.00
73941;BME280;62294;48.554;10.202;2023-03-01T00:23:55;96766.44;;;-2.20;100.00
73941;BME280;62294;48.554;10.202;2023-03-01T00:26:23;96772.94;;;-2.26;100.00
73941;BME280;62294;48.554;10.202;2023-03-01T00:28:50;96772.16;;;-2.26;100.00
73941;BME280;62294;48.554;10.202;2023-03-01T00:31:22;96773.81;;;-2.36;100.00
73941;BME280;62294;48.554;10.202;2023-03-01T00:33:52;96766.56;;;-2.22;100.00
73941;BME280;62294;48.554;10.202;2023-03-01T00:36:27;96761.78;;;-2.17;100.00
73941;BME280;62294;48.554;10.202;2023-03-01T00:38:56;96765.81;;;-2.12;100.00
73941;BME280;62294;48.554;10.202;2023-03-01T00:41:23;96757.41;;;-2.16;100.00
73941;BME280;62294;48.554;10.202;2023-03-01T00:43:50;96750.75;;;-2.09;100.00
73941;BME280;62294;48.554;10.202;2023-03-01T00:46:19;96747.59;;;-2.12;100.00
73941;BME280;62294;48.554;10.202;2023-03-01T00:48:47;96750.00;;;-2.00;100.00
73941;BME280;62294;48.554;10.202;2023-03-01T00:53:45;96738.19;;;-2.04;100.00
73941;BME280;62294;48.554;10.202;2023-03-01T00:56:14;96745.63;;;-1.99;100.00
73941;BME280;62294;48.554;10.202;2023-03-01T00:58:41;96735.38;;;-2.12;100.00
73941;BME280;62294;48.554;10.202;2023-03-01T01:01:11;96737.22;;;-2.03;100.00
73941;BME280;62294;48.554;10.202;2023-03-01T01:04:05;96737.59;;;-2.07;100.00
73941;BME280;62294;48.554;10.202;2023-03-01T01:06:35;96731.84;;;-2.11;100.00
73941;BME280;62294;48.554;10.202;2023-03-01T01:09:04;96726.56;;;-2.00;100.00
73941;BME280;62294;48.554;10.202;2023-03-01T01:11:31;96724.81;;;-1.99;100.00
73941;BME280;62294;48.554;10.202;2023-03-01T01:13:58;96719.22;;;-1.95;100.00
73941;BME280;62294;48.554;10.202;2023-03-01T01:16:26;96724.41;;;-1.95;100.00
73941;BME280;62294;48.554;10.202;2023-03-01T01:18:55;96721.50;;;-1.81;100.00
73941;BME280;62294;48.554;10.202;2023-03-01T01:21:23;96711.63;;;-1.98;100.00
73941;BME280;62294;48.554;10.202;2023-03-01T01:23:50;96715.84;;;-1.86;100.00
73941;BME280;62294;48.554;10.202;2023-03-01T01:26:25;96704.97;;;-1.91;100.00
73941;BME280;62294;48.554;10.202;2023-03-01T01:28:53;96712.88;;;-1.81;100.00
73941;BME280;62294;48.554;10.202;2023-03-01T01:31:21;96708.41;;;-1.70;100.00
73941;BME280;62294;48.554;10.202;2023-03-01T01:33:50;96704.34;;;-1.63;100.00
73941;BME280;62294;48.554;10.202;2023-03-01T01:36:17;96704.72;;;-1.88;100.00
73941;BME280;62294;48.554;10.202;2023-03-01T01:38:44;96693.53;;;-1.79;100.00
73941;BME280;62294;48.554;10.202;2023-03-01T01:41:12;96692.78;;;-1.70;100.00
73941;BME280;62294;48.554;10.202;2023-03-01T01:43:48;96690.56;;;-1.74;100.00
73941;BME280;62294;48.554;10.202;2023-03-01T01:46:34;96689.72;;;-1.75;100.00
73941;BME280;62294;48.554;10.202;2023-03-01T01:49:06;96691.81;;;-1.69;100.00
73941;BME280;62294;48.554;10.202;2023-03-01T01:51:39;96694.47;;;-1.59;100.00
73941;BME280;62294;48.554;10.202;2023-03-01T01:54:11;96691.00;;;-1.69;100.00
73941;BME280;62294;48.554;10.202;2023-03-01T01:56:40;96687.44;;;-1.68;100.00
73941;BME280;62294;48.554;10.202;2023-03-01T01:59:09;96683.75;;;-1.66;100.00
73941;BME280;62294;48.554;10.202;2023-03-01T02:01:36;96688.44;;;-1.60;100.00
73941;BME280;62294;48.554;10.202;2023-03-01T02:04:03;96680.06;;;-1.63;100.00
73941;BME280;62294;48.554;10.202;2023-03-01T02:06:37;96676.22;;;-1.59;100.00
73941;BME280;62294;48.554;10.202;2023-03-01T02:09:12;96685.19;;;-1.52;100.00
73941;BME280;62294;48.554;10.202;2023-03-01T02:11:39;96672.72;;;-1.49;100.00
73941;BME280;62294;48.554;10.202;2023-03-01T02:14:07;96673.13;;;-1.53;100.00
73941;BME280;62294;48.554;10.202;2023-03-01T02:16:33;96676.13;;;-1.58;100.00
73941;BME280;62294;48.554;10.202;2023-03-01T02:19:00;96674.94;;;-1.44;100.00
73941;BME280;62294;48.554;10.202;2023-03-01T02:21:54;96672.97;;;-1.52;100.00
73941;BME280;62294;48.554;10.202;2023-03-01T02:26:58;96669.84;;;-1.46;100.00
73941;BME280;62294;48.554;10.202;2023-03-01T02:29:25;96668.22;;;-1.47;100.00
73941;BME280;62294;48.554;10.202;2023-03-01T02:31:54;96659.41;;;-1.46;100.00
73941;BME280;62294;48.554;10.202;2023-03-01T02:34:24;96654.91;;;-1.44;100.00
73941;BME280;62294;48.554;10.202;2023-03-01T02:37:04;96653.59;;;-1.59;100.00
73941;BME280;62294;48.554;10.202;2023-03-01T02:39:36;96650.91;;;-1.48;100.00
73941;BME280;62294;48.554;10.202;2023-03-01T02:42:14;96657.34;;;-1.52;100.00
73941;BME280;62294;48.554;10.202;2023-03-01T02:44:42;96651.25;;;-1.62;100.00
73941;BME280;62294;48.554;10.202;2023-03-01T02:47:08;96646.19;;;-1.63;100.00
73941;BME280;62294;48.554;10.202;2023-03-01T02:49:36;96646.22;;;-1.54;100.00
73941;BME280;62294;48.554;10.202;2023-03-01T02:57:28;96634.09;;;-1.64;100.00
73941;BME280;62294;48.554;10.202;2023-03-01T02:59:56;96638.78;;;-1.58;100.00
73941;BME280;62294;48.554;10.202;2023-03-01T03:02:26;96638.00;;;-1.49;100.00
73941;BME280;62294;48.554;10.202;2023-03-01T03:05:14;96632.31;;;-1.64;100.00
73941;BME280;62294;48.554;10.202;2023-03-01T03:07:43;96630.41;;;-1.62;100.00
73941;BME280;62294;48.554;10.202;2023-03-01T03:10:17;96622.31;;;-1.59;100.00
73941;BME280;62294;48.554;10.202;2023-03-01T03:12:52;96628.81;;;-1.53;100.00
73941;BME280;62294;48.554;10.202;2023-03-01T03:15:20;96615.44;;;-1.60;100.00
73941;BME280;62294;48.554;10.202;2023-03-01T03:17:47;96620.47;;;-1.47;100.00
73941;BME280;62294;48.554;10.202;2023-03-01T03:20:16;96605.66;;;-1.47;100.00
73941;BME280;62294;48.554;10.202;2023-03-01T03:22:51;96608.59;;;-1.61;100.00
73941;BME280;62294;48.554;10.202;2023-03-01T03:25:18;96612.69;;;-1.68;100.00
73941;BME280;62294;48.554;10.202;2023-03-01T03:27:47;96608.03;;;-1.64;100.00
73941;BME280;62294;48.554;10.202;2023-03-01T03:30:16;96607.25;;;-1.55;100.00
73941;BME280;62294;48.554;10.202;2023-03-01T03:32:45;96606.84;;;-1.51;100.00
73941;BME280;62294;48.554;10.202;2023-03-01T03:35:20;96612.78;;;-1.49;100.00
73941;BME280;62294;48.554;10.202;2023-03-01T03:37:46;96607.53;;;-1.58;100.00
73941;BME280;62294;48.554;10.202;2023-03-01T03:40:40;96605.31;;;-1.63;100.00
73941;BME280;62294;48.554;10.202;2023-03-01T03:43:09;96605.59;;;-1.56;100.00
73941;BME280;62294;48.554;10.202;2023-03-01T03:45:36;96598.34;;;-1.53;100.00
73941;BME280;62294;48.554;10.202;2023-03-01T03:48:05;96605.91;;;-1.50;100.00
73941;BME280;62294;48.554;10.202;2023-03-01T03:50:32;96602.81;;;-1.64;100.00
73941;BME280;62294;48.554;10.202;2023-03-01T03:53:00;96607.47;;;-1.68;100.00
73941;BME280;62294;48.554;10.202;2023-03-01T03:55:27;96599.25;;;-1.63;100.00
73941;BME280;62294;48.554;10.202;2023-03-01T03:57:57;96596.69;;;-1.54;100.00
73941;BME280;62294;48.554;10.202;2023-03-01T04:00:28;96595.72;;;-1.53;100.00
73941;BME280;62294;48.554;10.202;2023-03-01T04:02:54;96598.72;;;-1.67;100.00
73941;BME280;62294;48.554;10.202;2023-03-01T04:05:23;96599.41;;;-1.55;100.00
73941;BME280;62294;48.554;10.202;2023-03-01T04:07:50;96603.13;;;-1.58;100.00
73941;BME280;62294;48.554;10.202;2023-03-01T04:10:32;96601.19;;;-1.65;100.00
73941;BME280;62294;48.554;10.202;2023-03-01T04:13:00;96602.16;;;-1.57;100.00
73941;BME280;62294;48.554;10.202;2023-03-01T04:15:27;96604.81;;;-1.47;100.00
73941;BME280;62294;48.554;10.202;2023-03-01T04:17:54;96602.75;;;-1.44;100.00
73941;BME280;62294;48.554;10.202;2023-03-01T04:20:24;96598.25;;;-1.41;100.00
73941;BME280;62294;48.554;10.202;2023-03-01T04:22:55;96593.81;;;-1.51;100.00
73941;BME280;62294;48.554;10.202;2023-03-01T04:25:24;96586.28;;;-1.54;100.00
73941;BME280;62294;48.554;10.202;2023-03-01T04:27:51;96584.50;;;-1.53;100.00
73941;BME280;62294;48.554;10.202;2023-03-01T04:30:17;96588.88;;;-1.54;100.00
73941;BME280;62294;48.554;10.202;2023-03-01T04:32:44;96583.91;;;-1.57;100.00
73941;BME280;62294;48.554;10.202;2023-03-01T04:35:10;96576.09;;;-1.57;100.00
73941;BME280;62294;48.554;10.202;2023-03-01T04:37:37;96577.31;;;-1.61;100.00
73941;BME280;62294;48.554;10.202;2023-03-01T04:40:04;96574.31;;;-1.56;100.00
73941;BME280;62294;48.554;10.202;2023-03-01T04:42:39;96574.59;;;-1.59;100.00
73941;BME280;62294;48.554;10.202;2023-03-01T04:45:06;96577.03;;;-1.67;100.00
73941;BME280;62294;48.554;10.202;2023-03-01T04:47:40;96572.22;;;-1.72;100.00
73941;BME280;62294;48.554;10.202;2023-03-01T04:50:08;96578.03;;;-1.89;100.00
73941;BME280;62294;48.554;10.202;2023-03-01T04:52:35;96577.16;;;-1.99;100.00
73941;BME280;62294;48.554;10.202;2023-03-01T04:55:03;96582.31;;;-2.08;100.00
73941;BME280;62294;48.554;10.202;2023-03-01T04:57:30;96592.53;;;-2.17;100.00
73941;BME280;62294;48.554;10.202;2023-03-01T04:59:57;96592.50;;;-2.26;100.00
73941;BME280;62294;48.554;10.202;2023-03-01T05:02:24;96587.09;;;-2.34;100.00
73941;BME280;62294;48.554;10.202;2023-03-01T05:04:50;96595.59;;;-2.32;100.00
73941;BME280;62294;48.554;10.202;2023-03-01T05:07:17;96595.13;;;-2.37;100.00
73941;BME280;62294;48.554;10.202;2023-03-01T05:09:48;96585.75;;;-2.49;100.00
73941;BME280;62294;48.554;10.202;2023-03-01T05:12:14;96597.38;;;-2.53;100.00
73941;BME280;62294;48.554;10.202;2023-03-01T05:14:41;96598.31;;;-2.54;100.00
73941;BME280;62294;48.554;10.202;2023-03-01T05:17:08;96613.22;;;-2.56;100.00
73941;BME280;62294;48.554;10.202;2023-03-01T05:19:35;96609.25;;;-2.60;100.00
73941;BME280;62294;48.554;10.202;2023-03-01T05:22:01;96604.47;;;-2.55;100.00
73941;BME280;62294;48.554;10.202;2023-03-01T05:24:31;96615.50;;;-2.63;100.00
73941;BME280;62294;48.554;10.202;2023-03-01T05:27:01;96611.38;;;-2.65;100.00
73941;BME280;62294;48.554;10.202;2023-03-01T05:29:30;96606.78;;;-2.73;100.00
73941;BME280;62294;48.554;10.202;2023-03-01T05:31:59;96610.22;;;-2.72;100.00
73941;BME280;62294;48.554;10.202;2023-03-01T05:34:29;96608.13;;;-2.78;100.00
73941;BME280;62294;48.554;10.202;2023-03-01T05:36:57;96614.41;;;-2.81;100.00
73941;BME280;62294;48.554;10.202;2023-03-01T05:39:26;96621.75;;;-2.86;100.00
73941;BME280;62294;48.554;10.202;2023-03-01T05:41:54;96620.06;;;-2.87;100.00
73941;BME280;62294;48.554;10.202;2023-03-01T05:44:21;96619.75;;;-2.94;100.00
73941;BME280;62294;48.554;10.202;2023-03-01T05:46:49;96620.59;;;-2.93;100.00
73941;BME280;62294;48.554;10.202;2023-03-01T05:49:16;96629.59;;;-2.97;100.00
73941;BME280;62294;48.554;10.202;2023-03-01T05:51:47;96623.56;;;-2.98;100.00
73941;BME280;62294;48.554;10.202;2023-03-01T05:54:15;96615.16;;;-3.01;100.00
73941;BME280;62294;48.554;10.202;2023-03-01T05:56:41;96621.66;;;-2.96;100.00
73941;BME280;62294;48.554;10.202;2023-03-01T05:59:08;96627.72;;;-3.06;100.00
73941;BME280;62294;48.554;10.202;2023-03-01T06:01:35;96618.13;;;-3.06;100.00
73941;BME280;62294;48.554;10.202;2023-03-01T06:04:03;96621.56;;;-3.05;100.00
73941;BME280;62294;48.554;10.202;2023-03-01T06:06:34;96624.28;;;-3.07;100.00
73941;BME280;62294;48.554;10.202;2023-03-01T06:09:01;96617.31;;;-3.06;100.00
73941;BME280;62294;48.554;10.202;2023-03-01T06:11:27;96618.84;;;-3.04;100.00
73941;BME280;62294;48.554;10.202;2023-03-01T06:13:54;96634.44;;;-3.04;100.00
73941;BME280;62294;48.554;10.202;2023-03-01T06:16:20;96638.69;;;-3.03;100.00
73941;BME280;62294;48.554;10.202;2023-03-01T06:18:47;96639.66;;;-3.04;100.00
73941;BME280;62294;48.554;10.202;2023-03-01T06:21:14;96636.31;;;-3.06;100.00
73941;BME280;62294;48.554;10.202;2023-03-01T06:23:40;96641.06;;;-3.00;100.00
73941;BME280;62294;48.554;10.202;2023-03-01T06:26:08;96636.31;;;-2.95;100.00
73941;BME280;62294;48.554;10.202;2023-03-01T06:28:35;96631.59;;;-3.01;100.00
73941;BME280;62294;48.554;10.202;2023-03-01T06:31:02;96628.25;;;-2.92;100.00
73941;BME280;62294;48.554;10.202;2023-03-01T06:33:29;96638.78;;;-2.93;100.00
73941;BME280;62294;48.554;10.202;2023-03-01T06:35:56;96618.81;;;-2.93;100.00
73941;BME280;62294;48.554;10.202;2023-03-01T06:38:23;96612.41;;;-2.89;100.00
73941;BME280;62294;48.554;10.202;2023-03-01T06:40:55;96619.75;;;-2.94;100.00
73941;BME280;62294;48.554;10.202;2023-03-01T06:43:23;96613.72;;;-2.94;100.00
73941;BME280;62294;48.554;10.202;2023-03-01T06:45:50;96612.72;;;-2.82;100.00
73941;BME280;62294;48.554;10.202;2023-03-01T06:48:17;96609.53;;;-2.74;100.00
73941;BME280;62294;48.554;10.202;2023-03-01T06:50:44;96603.34;;;-2.73;100.00
73941;BME280;62294;48.554;10.202;2023-03-01T06:53:10;96600.88;;;-2.43;100.00
73941;BME280;62294;48.554;10.202;2023-03-01T06:55:37;96605.97;;;-1.91;100.00
73941;BME280;62294;48.554;10.202;2023-03-01T06:58:03;96603.44;;;-1.51;100.00
73941;BME280;62294;48.554;10.202;2023-03-01T07:00:30;96590.38;;;-1.02;100.00
73941;BME280;62294;48.554;10.202;2023-03-01T07:03:01;96579.66;;;-1.18;100.00
73941;BME280;62294;48.554;10.202;2023-03-01T07:05:29;96571.97;;;-1.00;100.00
73941;BME280;62294;48.554;10.202;2023-03-01T07:07:56;96560.72;;;-1.10;100.00
73941;BME280;62294;48.554;10.202;2023-03-01T07:10:23;96538.47;;;-0.57;100.00
73941;BME280;62294;48.554;10.202;2023-03-01T07:12:49;96531.56;;;-0.39;100.00
73941;BME280;62294;48.554;10.202;2023-03-01T07:15:17;96513.50;;;-0.04;100.00
73941;BME280;62294;48.554;10.202;2023-03-01T07:17:43;96508.41;;;0.59;100.00
73941;BME280;62294;48.554;10.202;2023-03-01T07:20:11;96496.06;;;-0.13;100.00
73941;BME280;62294;48.554;10.202;2023-03-01T07:22:40;96483.75;;;0.34;100.00
73941;BME280;62294;48.554;10.202;2023-03-01T07:25:07;96480.81;;;0.64;100.00
73941;BME280;62294;48.554;10.202;2023-03-01T07:27:34;96464.78;;;0.77;100.00
73941;BME280;62294;48.554;10.202;2023-03-01T07:30:01;96470.16;;;1.11;100.00
73941;BME280;62294;48.554;10.202;2023-03-01T07:32:27;96462.69;;;0.36;100.00
73941;BME280;62294;48.554;10.202;2023-03-01T07:34:54;96457.34;;;1.08;100.00
73941;BME280;62294;48.554;10.202;2023-03-01T07:37:20;96448.38;;;1.54;100.00
73941;BME280;62294;48.554;10.202;2023-03-01T07:39:47;96447.47;;;1.63;100.00
73941;BME280;62294;48.554;10.202;2023-03-01T07:42:13;96435.22;;;2.39;100.00
73941;BME280;62294;48.554;10.202;2023-03-01T07:44:40;96427.91;;;2.66;100.00
73941;BME280;62294;48.554;10.202;2023-03-01T07:47:06;96429.84;;;2.56;100.00
73941;BME280;62294;48.554;10.202;2023-03-01T07:49:33;96427.63;;;3.34;100.00
73941;BME280;62294;48.554;10.202;2023-03-01T07:52:00;96420.75;;;3.33;100.00
73941;BME280;62294;48.554;10.202;2023-03-01T07:54:26;96425.00;;;3.02;100.00
73941;BME280;62294;48.554;10.202;2023-03-01T07:56:53;96431.91;;;1.95;100.00
73941;BME280;62294;48.554;10.202;2023-03-01T07:59:20;96429.00;;;2.48;100.00
73941;BME280;62294;48.554;10.202;2023-03-01T08:01:47;96426.38;;;2.56;100.00
73941;BME280;62294;48.554;10.202;2023-03-01T08:04:14;96420.56;;;3.02;100.00
73941;BME280;62294;48.554;10.202;2023-03-01T08:06:40;96435.81;;;3.47;100.00
73941;BME280;62294;48.554;10.202;2023-03-01T08:09:07;96429.75;;;3.22;100.00
73941;BME280;62294;48.554;10.202;2023-03-01T08:11:34;96420.41;;;3.28;100.00
73941;BME280;62294;48.554;10.202;2023-03-01T08:14:01;96417.56;;;3.62;100.00
73941;BME280;62294;48.554;10.202;2023-03-01T08:16:28;96415.69;;;3.94;100.00
73941;BME280;62294;48.554;10.202;2023-03-01T08:18:55;96430.84;;;3.84;100.00
73941;BME280;62294;48.554;10.202;2023-03-01T08:21:22;96411.00;;;4.20;100.00
73941;BME280;62294;48.554;10.202;2023-03-01T08:23:49;96413.72;;;4.66;100.00
73941;BME280;62294;48.554;10.202;2023-03-01T08:26:18;96416.34;;;4.96;100.00
73941;BME280;62294;48.554;10.202;2023-03-01T08:28:47;96436.09;;;3.84;100.00
73941;BME280;62294;48.554;10.202;2023-03-01T08:31:22;96437.34;;;4.12;100.00
73941;BME280;62294;48.554;10.202;2023-03-01T08:33:52;96439.38;;;3.86;100.00
73941;BME280;62294;48.554;10.202;2023-03-01T08:36:24;96440.38;;;3.77;100.00
73941;BME280;62294;48.554;10.202;2023-03-01T08:38:51;96436.06;;;4.00;100.00
73941;BME280;62294;48.554;10.202;2023-03-01T08:41:18;96436.94;;;3.69;100.00
73941;BME280;62294;48.554;10.202;2023-03-01T08:43:44;96431.50;;;4.33;100.00
73941;BME280;62294;48.554;10.202;2023-03-01T08:46:12;96443.09;;;4.08;100.00
73941;BME280;62294;48.554;10.202;2023-03-01T08:48:39;96433.22;;;3.15;100.00
73941;BME280;62294;48.554;10.202;2023-03-01T08:51:15;96431.72;;;3.52;100.00
73941;BME280;62294;48.554;10.202;2023-03-01T08:53:45;96419.72;;;3.50;100.00
73941;BME280;62294;48.554;10.202;2023-03-01T08:56:12;96436.81;;;3.46;100.00
73941;BME280;62294;48.554;10.202;2023-03-01T08:58:39;96438.78;;;2.96;100.00
73941;BME280;62294;48.554;10.202;2023-03-01T09:01:10;96437.66;;;3.30;100.00
73941;BME280;62294;48.554;10.202;2023-03-01T09:03:37;96435.06;;;4.01;100.00
73941;BME280;62294;48.554;10.202;2023-03-01T09:06:05;96437.28;;;3.49;100.00
73941;BME280;62294;48.554;10.202;2023-03-01T09:08:34;96440.28;;;4.09;100.00
73941;BME280;62294;48.554;10.202;2023-03-01T09:11:03;96425.00;;;3.58;100.00
73941;BME280;62294;48.554;10.202;2023-03-01T09:13:31;96425.31;;;3.31;100.00
73941;BME280;62294;48.554;10.202;2023-03-01T09:15:58;96427.97;;;3.23;100.00
73941;BME280;62294;48.554;10.202;2023-03-01T09:18:25;96434.66;;;2.93;100.00
73941;BME280;62294;48.554;10.202;2023-03-01T09:20:52;96423.59;;;2.49;100.00
73941;BME280;62294;48.554;10.202;2023-03-01T09:23:21;96415.41;;;3.73;100.00
73941;BME280;62294;48.554;10.202;2023-03-01T09:25:47;96414.31;;;4.06;100.00
73941;BME280;62294;48.554;10.202;2023-03-01T09:28:14;96421.94;;;4.01;100.00
73941;BME280;62294;48.554;10.202;2023-03-01T09:30:58;96407.25;;;3.20;100.00
73941;BME280;62294;48.554;10.202;2023-03-01T09:33:27;96409.50;;;3.71;100.00
73941;BME280;62294;48.554;10.202;2023-03-01T09:38:25;96404.16;;;4.42;100.00
73941;BME280;62294;48.554;10.202;2023-03-01T09:40:53;96398.53;;;4.45;100.00
73941;BME280;62294;48.554;10.202;2023-03-01T09:43:43;96400.94;;;3.85;100.00
73941;BME280;62294;48.554;10.202;2023-03-01T09:46:14;96395.13;;;3.11;100.00
73941;BME280;62294;48.554;10.202;2023-03-01T09:49:01;96392.81;;;3.16;100.00
73941;BME280;62294;48.554;10.202;2023-03-01T09:51:33;96392.38;;;4.30;100.00
73941;BME280;62294;48.554;10.202;2023-03-01T09:54:02;96390.97;;;4.11;100.00
73941;BME280;62294;48.554;10.202;2023-03-01T09:56:36;96383.13;;;4.65;100.00
73941;BME280;62294;48.554;10.202;2023-03-01T09:59:28;96389.53;;;5.30;100.00
73941;BME280;62294;48.554;10.202;2023-03-01T10:02:30;96390.13;;;5.40;100.00
73941;BME280;62294;48.554;10.202;2023-03-01T10:07:48;96409.81;;;5.07;100.00
73941;BME280;62294;48.554;10.202;2023-03-01T10:10:40;96417.44;;;5.25;100.00
73941;BME280;62294;48.554;10.202;2023-03-01T10:13:21;96417.91;;;5.28;100.00
73941;BME280;62294;48.554;10.202;2023-03-01T10:15:54;96400.56;;;5.11;100.00
73941;BME280;62294;48.554;10.202;2023-03-01T10:18:29;96393.19;;;4.84;100.00
73941;BME280;62294;48.554;10.202;2023-03-01T10:21:05;96400.16;;;5.59;100.00
73941;BME280;62294;48.554;10.202;2023-03-01T10:23:36;96394.44;;;5.70;100.00
73941;BME280;62294;48.554;10.202;2023-03-01T10:31:46;96400.81;;;6.34;100.00
73941;BME280;62294;48.554;10.202;2023-03-01T10:34:28;96376.63;;;5.72;100.00
73941;BME280;62294;48.554;10.202;2023-03-01T10:37:18;96380.13;;;6.53;100.00
73941;BME280;62294;48.554;10.202;2023-03-01T10:40:17;96369.16;;;7.34;100.00
73941;BME280;62294;48.554;10.202;2023-03-01T10:42:48;96361.72;;;7.44;100.00
73941;BME280;62294;48.554;10.202;2023-03-01T10:45:34;96357.53;;;7.56;100.00
73941;BME280;62294;48.554;10.202;2023-03-01T10:50:34;96358.22;;;6.94;100.00
73941;BME280;62294;48.554;10.202;2023-03-01T10:53:23;96367.53;;;6.69;100.00
73941;BME280;62294;48.554;10.202;2023-03-01T10:56:11;96363.25;;;7.10;100.00
73941;BME280;62294;48.554;10.202;2023-03-01T11:01:24;96363.75;;;6.78;100.00
73941;BME280;62294;48.554;10.202;2023-03-01T11:04:12;96351.06;;;6.88;100.00
73941;BME280;62294;48.554;10.202;2023-03-01T11:06:41;96349.56;;;7.28;100.00
73941;BME280;62294;48.554;10.202;2023-03-01T11:11:41;96342.94;;;6.90;100.00
73941;BME280;62294;48.554;10.202;2023-03-01T11:17:02;96343.88;;;7.03;100.00
73941;BME280;62294;48.554;10.202;2023-03-01T11:19:28;96338.13;;;7.49;100.00
73941;BME280;62294;48.554;10.202;2023-03-01T11:22:05;96346.47;;;7.46;100.00
73941;BME280;62294;48.554;10.202;2023-03-01T11:24:46;96326.41;;;6.81;100.00
73941;BME280;62294;48.554;10.202;2023-03-01T11:27:31;96335.41;;;7.36;100.00
73941;BME280;62294;48.554;10.202;2023-03-01T11:30:27;96323.94;;;6.23;100.00
73941;BME280;62294;48.554;10.202;2023-03-01T11:33:17;96322.47;;;6.35;100.00
73941;BME280;62294;48.554;10.202;2023-03-01T11:38:29;96306.69;;;7.33;100.00
73941;BME280;62294;48.554;10.202;2023-03-01T11:41:03;96311.19;;;6.83;100.00
73941;BME280;62294;48.554;10.202;2023-03-01T11:43:49;96298.34;;;6.38;100.00
73941;BME280;62294;48.554;10.202;2023-03-01T11:57:04;96275.19;;;5.02;100.00
73941;BME280;62294;48.554;10.202;2023-03-01T12:05:43;96277.31;;;4.84;100.00
73941;BME280;62294;48.554;10.202;2023-03-01T12:08:19;96280.06;;;4.30;100.00
73941;BME280;62294;48.554;10.202;2023-03-01T12:11:15;96276.53;;;4.38;100.00
73941;BME280;62294;48.554;10.202;2023-03-01T12:14:07;96261.09;;;4.58;100.00
73941;BME280;62294;48.554;10.202;2023-03-01T12:16:40;96259.56;;;4.41;100.00
73941;BME280;62294;48.554;10.202;2023-03-01T12:25:14;96228.31;;;4.83;100.00
73941;BME280;62294;48.554;10.202;2023-03-01T12:27:59;96232.16;;;4.58;100.00
73941;BME280;62294;48.554;10.202;2023-03-01T12:30:44;96218.19;;;4.12;100.00
73941;BME280;62294;48.554;10.202;2023-03-01T12:36:19;96219.63;;;4.60;100.00
73941;BME280;62294;48.554;10.202;2023-03-01T12:39:14;96217.19;;;4.73;100.00
73941;BME280;62294;48.554;10.202;2023-03-01T12:44:35;96212.50;;;4.83;100.00
73941;BME280;62294;48.554;10.202;2023-03-01T12:49:50;96210.34;;;5.01;100.00
73941;BME280;62294;48.554;10.202;2023-03-01T12:52:37;96209.44;;;4.94;100.00
73941;BME280;62294;48.554;10.202;2023-03-01T12:55:21;96195.53;;;5.15;100.00
73941;BME280;62294;48.554;10.202;2023-03-01T12:57:57;96200.69;;;4.93;100.00
73941;BME280;62294;48.554;10.202;2023-03-01T13:00:33;96197.78;;;4.88;100.00
73941;BME280;62294;48.554;10.202;2023-03-01T13:03:16;96201.34;;;4.95;100.00
73941;BME280;62294;48.554;10.202;2023-03-01T13:06:00;96189.09;;;5.17;100.00
73941;BME280;62294;48.554;10.202;2023-03-01T13:08:57;96178.72;;;5.30;100.00
73941;BME280;62294;48.554;10.202;2023-03-01T13:11:27;96189.69;;;4.75;100.00
73941;BME280;62294;48.554;10.202;2023-03-01T13:16:53;96175.06;;;4.73;100.00
73941;BME280;62294;48.554;10.202;2023-03-01T13:19:22;96187.44;;;4.87;100.00
73941;BME280;62294;48.554;10.202;2023-03-01T13:21:51;96190.00;;;4.95;100.00
73941;BME280;62294;48.554;10.202;2023-03-01T13:24:34;96191.81;;;4.94;100.00
73941;BME280;62294;48.554;10.202;2023-03-01T13:29:45;96176.81;;;5.10;100.00
73941;BME280;62294;48.554;10.202;2023-03-01T13:32:24;96166.44;;;5.23;100.00
73941;BME280;62294;48.554;10.202;2023-03-01T13:37:46;96154.72;;;5.54;100.00
73941;BME280;62294;48.554;10.202;2023-03-01T13:42:48;96173.94;;;5.69;100.00
73941;BME280;62294;48.554;10.202;2023-03-01T13:45:40;96169.56;;;5.77;100.00
73941;BME280;62294;48.554;10.202;2023-03-01T13:48:20;96175.69;;;5.62;100.00
73941;BME280;62294;48.554;10.202;2023-03-01T13:50:52;96184.50;;;5.69;100.00
73941;BME280;62294;48.554;10.202;2023-03-01T13:53:23;96183.31;;;5.57;100.00
73941;BME280;62294;48.554;10.202;2023-03-01T13:55:54;96189.63;;;5.56;100.00
73941;BME280;62294;48.554;10.202;2023-03-01T13:58:32;96197.31;;;5.58;100.00
73941;BME280;62294;48.554;10.202;2023-03-01T14:01:03;96194.78;;;5.50;100.00
73941;BME280;62294;48.554;10.202;2023-03-01T14:03:33;96205.78;;;5.39;100.00
73941;BME280;62294;48.554;10.202;2023-03-01T14:06:07;96200.72;;;5.37;100.00
73941;BME280;62294;48.554;10.202;2023-03-01T14:08:42;96198.41;;;5.63;100.00
73941;BME280;62294;48.554;10.202;2023-03-01T14:14:01;96194.88;;;5.56;100.00
73941;BME280;62294;48.554;10.202;2023-03-01T14:19:20;96202.88;;;5.63;100.00
73941;BME280;62294;48.554;10.202;2023-03-01T14:22:23;96206.50;;;5.62;100.00
73941;BME280;62294;48.554;10.202;2023-03-01T14:24:53;96201.97;;;5.56;100.00
73941;BME280;62294;48.554;10.202;2023-03-01T14:27:21;96201.63;;;5.44;100.00
73941;BME280;62294;48.554;10.202;2023-03-01T14:29:56;96191.34;;;5.35;100.00